Saint-Vincent-De-Paul, Canada
Current Conditions -  °F | °C
As of 5:00 PM on Sunday 21 Dec 2014 (Local Time) from CYUL Reporting Station
Light Snow Light Snow  
Wind Chill:   Ceiling: 2300
Heat Index: 18°   Visibility: 10mi
Dew Point: 14°   Wind: 6mph
Humidity: 86%   Direction: 70°ENE
Pressure: 30.38"   Gusts: NA
Location:  45.62°N, 73.65°W
Report Text: CYUL 212200Z 07005KT 10SM -SN FEW012 OVC023 M08/M10 A3038 RMK SF2SC6 SLP291
Loading
Personal Weather Stations






























Interactive Weather Map New forecast layout! Learn more

10-Day Weather Forecast

Advertisements
Track Severe Weather on mobile